Time;durP1;ratioP1;P1;durP2;ratioP2;P2;SDS_P1;SDS_P2;PMS_P1;PMS_P2;Temp;Humidity;BMP_temperature;BMP_pressure;BME280_temperature;BME280_humidity;BME280_pressure;Samples;Min_cycle;Max_cycle;Signal;HPM_P1;HPM_P2
2023/04/18 00:01:44;;;;;;;41.80;26.60;;;10.60;99.90;;;;;;7285676;19;20193;-78
2023/04/18 00:04:10;;;;;;;42.43;25.60;;;10.50;99.90;;;;;;7283894;19;20538;-78
2023/04/18 00:06:36;;;;;;;40.80;26.03;;;10.40;99.90;;;;;;7305849;19;20186;-78
2023/04/18 00:09:02;;;;;;;43.80;26.27;;;10.40;99.90;;;;;;7284902;19;20210;-78
2023/04/18 00:11:29;;;;;;;41.83;26.40;;;10.20;99.90;;;;;;7284630;19;20193;-78
2023/04/18 00:13:56;;;;;;;44.97;26.80;;;10.20;99.90;;;;;;7284189;19;20189;-79
2023/04/18 00:16:22;;;;;;;45.57;28.30;;;10.20;99.90;;;;;;7284869;19;20205;-79
2023/04/18 00:18:50;;;;;;;43.60;27.50;;;10.30;99.90;;;;;;7283992;19;20209;-79
2023/04/18 00:21:16;;;;;;;41.17;26.57;;;10.50;99.90;;;;;;7284314;19;20189;-79
2023/04/18 00:23:42;;;;;;;40.10;26.80;;;10.70;99.90;;;;;;7283252;19;20690;-79
2023/04/18 00:26:07;;;;;;;42.07;26.90;;;10.60;99.90;;;;;;7296066;19;20197;-80
2023/04/18 00:28:33;;;;;;;47.17;28.60;;;10.50;99.90;;;;;;7302047;19;20200;-79
2023/04/18 00:30:59;;;;;;;44.63;26.97;;;10.40;99.90;;;;;;7283174;19;20866;-79
2023/04/18 00:33:25;;;;;;;42.50;26.60;;;10.40;99.90;;;;;;7283788;19;20185;-79
2023/04/18 00:35:51;;;;;;;44.50;26.27;;;10.50;99.90;;;;;;7284247;19;20189;-79
2023/04/18 00:38:16;;;;;;;40.73;26.37;;;10.60;99.90;;;;;;7282435;19;20665;-79
2023/04/18 00:40:42;;;;;;;41.43;26.73;;;10.50;99.90;;;;;;7284547;19;20221;-79
2023/04/18 00:43:08;;;;;;;39.93;25.60;;;10.50;99.90;;;;;;7289542;19;20181;-79
2023/04/18 00:45:34;;;;;;;44.00;27.50;;;10.60;99.90;;;;;;7304621;19;20193;-79
2023/04/18 00:48:00;;;;;;;44.27;26.83;;;10.60;99.90;;;;;;7282570;19;20300;-79
2023/04/18 00:50:26;;;;;;;44.97;28.13;;;10.50;99.90;;;;;;7282075;19;20199;-78
2023/04/18 00:52:52;;;;;;;40.77;25.83;;;10.50;99.90;;;;;;7280886;19;20274;-79
2023/04/18 00:55:19;;;;;;;45.73;27.43;;;10.40;99.90;;;;;;7281325;19;20261;-79
2023/04/18 00:57:45;;;;;;;44.50;26.77;;;10.60;99.90;;;;;;7281862;19;20196;-79
2023/04/18 01:00:11;;;;;;;42.33;27.47;;;10.70;99.90;;;;;;7281146;19;20212;-79
2023/04/18 01:02:39;;;;;;;41.43;26.33;;;10.60;99.90;;;;;;7287518;19;20196;-79
2023/04/18 01:05:05;;;;;;;43.57;27.07;;;10.40;99.90;;;;;;7310257;19;20193;-79
2023/04/18 01:07:32;;;;;;;43.37;26.60;;;10.20;99.90;;;;;;7287456;19;20192;-79
2023/04/18 01:09:59;;;;;;;41.37;26.50;;;10.00;99.90;;;;;;7287508;19;20186;-79
2023/04/18 01:12:24;;;;;;;43.93;27.83;;;9.90;99.90;;;;;;7286779;19;20252;-79
2023/04/18 01:14:53;;;;;;;43.83;28.43;;;9.90;99.90;;;;;;7289417;19;20196;-79
2023/04/18 01:17:18;;;;;;;42.60;25.93;;;9.90;99.90;;;;;;7289289;19;20203;-79
2023/04/18 01:19:45;;;;;;;41.77;26.57;;;9.90;99.90;;;;;;7288442;19;20707;-79
2023/04/18 01:22:13;;;;;;;43.50;27.77;;;9.90;99.90;;;;;;7289318;19;20184;-80
2023/04/18 01:24:40;;;;;;;44.23;28.40;;;10.10;99.90;;;;;;7289463;19;20181;-78
2023/04/18 01:27:12;;;;;;;43.40;26.57;;;10.10;99.90;;;;;;7297220;19;20193;-79
2023/04/18 01:29:37;;;;;;;48.37;27.93;;;10.20;99.90;;;;;;7301093;19;20559;-79
2023/04/18 01:32:03;;;;;;;44.80;27.43;;;10.20;99.90;;;;;;7304825;19;20189;-79
2023/04/18 01:34:29;;;;;;;44.63;27.73;;;10.00;99.90;;;;;;7289372;19;20534;-79
2023/04/18 01:36:55;;;;;;;44.37;28.70;;;10.00;99.90;;;;;;7288568;19;20195;-79
2023/04/18 01:39:20;;;;;;;46.97;29.17;;;10.00;99.90;;;;;;7288694;19;20593;-79
2023/04/18 01:41:46;;;;;;;44.60;28.97;;;10.10;99.90;;;;;;7287905;19;20192;-79
2023/04/18 01:44:12;;;;;;;46.67;28.70;;;10.10;99.90;;;;;;7288377;19;20191;-79
2023/04/18 01:46:38;;;;;;;48.97;28.47;;;10.10;99.90;;;;;;7301162;19;20201;-79
2023/04/18 01:49:05;;;;;;;50.70;31.00;;;10.10;99.90;;;;;;7310157;19;20722;-79
2023/04/18 01:51:31;;;;;;;46.23;29.27;;;10.10;99.90;;;;;;7288913;19;20217;-80
2023/04/18 01:53:57;;;;;;;50.13;30.00;;;10.20;99.90;;;;;;7289503;19;20201;-79
2023/04/18 01:56:23;;;;;;;48.73;30.70;;;10.20;99.90;;;;;;7288022;19;20516;-79
2023/04/18 01:58:49;;;;;;;47.60;29.23;;;10.20;99.90;;;;;;7287858;19;20188;-79
2023/04/18 02:01:15;;;;;;;50.23;29.77;;;10.10;99.90;;;;;;7288799;19;20199;-79
2023/04/18 02:03:40;;;;;;;52.30;30.93;;;10.00;99.90;;;;;;7287677;19;20181;-79
2023/04/18 02:06:06;;;;;;;48.50;31.00;;;10.00;99.90;;;;;;7309580;19;20181;-79
2023/04/18 02:08:34;;;;;;;51.03;31.20;;;10.00;99.90;;;;;;7287254;19;20188;-79
2023/04/18 02:11:04;;;;;;;49.13;31.23;;;10.00;99.90;;;;;;7287914;19;20894;-79
2023/04/18 02:13:30;;;;;;;48.50;29.83;;;10.00;99.90;;;;;;7287651;19;20197;-79
2023/04/18 02:15:56;;;;;;;48.53;29.70;;;10.10;99.90;;;;;;7286118;19;20205;-79
2023/04/18 02:18:24;;;;;;;51.00;31.07;;;10.00;99.90;;;;;;7287618;19;20706;-79
2023/04/18 02:20:50;;;;;;;49.27;30.70;;;9.90;99.90;;;;;;7287595;19;20181;-79
2023/04/18 02:23:17;;;;;;;50.97;31.47;;;9.90;99.90;;;;;;7287915;19;20188;-81
2023/04/18 02:25:42;;;;;;;55.67;31.70;;;9.80;99.90;;;;;;7287336;19;20712;-78
2023/04/18 02:28:08;;;;;;;51.30;31.90;;;9.70;99.90;;;;;;7297446;19;20185;-79
2023/04/18 02:30:34;;;;;;;50.03;31.57;;;9.80;99.90;;;;;;7307935;19;20644;-79
2023/04/18 02:33:01;;;;;;;50.70;30.30;;;9.70;99.90;;;;;;7286728;19;20185;-79
2023/04/18 02:35:27;;;;;;;48.90;30.53;;;9.70;99.90;;;;;;7288314;19;21771;-79
2023/04/18 02:37:53;;;;;;;48.60;28.90;;;9.60;99.90;;;;;;7285665;19;20218;-79
2023/04/18 02:40:19;;;;;;;50.67;30.50;;;9.50;99.90;;;;;;7287666;19;20187;-79
2023/04/18 02:42:45;;;;;;;54.70;32.23;;;9.50;99.90;;;;;;7284864;19;20205;-79
2023/04/18 02:45:14;;;;;;;49.50;29.53;;;9.50;99.90;;;;;;7285257;19;20189;-79
2023/04/18 02:47:40;;;;;;;49.50;29.20;;;9.40;99.90;;;;;;7287114;19;20189;-79
2023/04/18 02:50:06;;;;;;;46.97;28.43;;;9.30;99.90;;;;;;7308010;19;20181;-79
2023/04/18 02:52:33;;;;;;;49.33;29.33;;;9.20;99.90;;;;;;7287020;19;20204;-80
2023/04/18 02:54:59;;;;;;;50.37;30.77;;;9.30;99.90;;;;;;7286153;19;20189;-79
2023/04/18 02:57:29;;;;;;;50.93;30.97;;;9.30;99.90;;;;;;7286119;19;20250;-79
2023/04/18 02:59:58;;;;;;;47.67;28.77;;;9.40;99.90;;;;;;7285351;19;20189;-79
2023/04/18 03:02:56;;;;;;;49.27;28.50;;;9.40;99.90;;;;;;7183626;19;2004784;-79
2023/04/18 03:05:32;;;;;;;49.83;28.83;;;9.30;99.90;;;;;;7285949;19;20186;-79
2023/04/18 03:08:01;;;;;;;53.50;29.97;;;9.30;99.90;;;;;;7285747;19;20275;-79
2023/04/18 03:10:28;;;;;;;48.93;29.23;;;9.20;99.90;;;;;;7286288;19;20260;-79
2023/04/18 03:12:54;;;;;;;48.20;29.57;;;9.20;99.90;;;;;;7284517;19;20188;-79
2023/04/18 03:15:20;;;;;;;47.10;28.37;;;9.20;99.90;;;;;;7285830;19;20244;-79
2023/04/18 03:17:47;;;;;;;46.60;29.30;;;9.20;99.90;;;;;;7284477;19;20192;-79
2023/04/18 03:20:14;;;;;;;52.60;30.57;;;9.30;99.90;;;;;;7285019;19;20634;-79
2023/04/18 03:22:40;;;;;;;52.60;30.53;;;9.30;99.90;;;;;;7286438;19;20185;-79
2023/04/18 03:25:06;;;;;;;49.83;29.47;;;9.30;99.90;;;;;;7304924;19;20184;-79
2023/04/18 03:27:42;;;;;;;49.03;29.00;;;9.40;99.90;;;;;;7183681;19;2004904;-80
2023/04/18 03:30:10;;;;;;;51.37;30.57;;;9.10;99.90;;;;;;7284873;19;20240;-79
2023/04/18 03:32:38;;;;;;;51.60;30.07;;;9.00;99.90;;;;;;7297338;19;20188;-79
2023/04/18 03:35:04;;;;;;;50.43;30.00;;;8.90;99.90;;;;;;7303445;19;20673;-79
2023/04/18 03:37:31;;;;;;;47.60;29.10;;;8.90;99.90;;;;;;7284918;19;20220;-79
2023/04/18 03:39:58;;;;;;;49.23;27.67;;;8.80;99.90;;;;;;7285231;19;20369;-79
2023/04/18 03:42:26;;;;;;;44.47;28.17;;;8.70;99.90;;;;;;7283769;19;20199;-79
2023/04/18 03:44:52;;;;;;;45.70;27.33;;;8.80;99.90;;;;;;7283407;19;20539;-79
2023/04/18 03:47:18;;;;;;;46.60;28.33;;;8.70;99.90;;;;;;7284211;19;20216;-79
2023/04/18 03:49:47;;;;;;;43.63;26.33;;;8.60;99.90;;;;;;7282748;19;20293;-79
2023/04/18 03:52:14;;;;;;;50.63;27.60;;;8.70;99.90;;;;;;7284487;19;20258;-79
2023/04/18 03:54:40;;;;;;;43.57;28.37;;;8.60;99.90;;;;;;7283090;19;20195;-79
2023/04/18 03:57:06;;;;;;;45.73;26.87;;;8.60;99.90;;;;;;7305445;19;20199;-79
2023/04/18 03:59:34;;;;;;;39.77;24.77;;;8.70;99.90;;;;;;7283558;19;20186;-79
2023/04/18 04:02:00;;;;;;;45.20;27.27;;;8.70;99.90;;;;;;7283795;19;20309;-79
2023/04/18 04:04:26;;;;;;;41.47;25.20;;;8.80;99.90;;;;;;7283788;19;20197;-79
2023/04/18 04:06:52;;;;;;;44.57;26.93;;;8.70;99.90;;;;;;7282853;19;20656;-79
2023/04/18 04:09:18;;;;;;;46.27;27.37;;;8.60;99.90;;;;;;7281102;19;20187;-79
2023/04/18 04:11:45;;;;;;;43.97;26.20;;;8.60;99.90;;;;;;7280371;19;20190;-79
2023/04/18 04:14:11;;;;;;;41.23;25.73;;;8.50;99.90;;;;;;7282259;19;20221;-79
2023/04/18 04:16:42;;;;;;;41.03;25.20;;;8.40;99.90;;;;;;7282390;19;20285;-79
2023/04/18 04:19:10;;;;;;;43.60;24.93;;;8.40;99.90;;;;;;7279988;19;20218;-79
2023/04/18 04:21:41;;;;;;;39.03;23.63;;;8.40;99.90;;;;;;7282043;19;20183;-79
2023/04/18 04:24:10;;;;;;;36.10;22.20;;;8.40;99.90;;;;;;7279067;19;20678;-82
2023/04/18 04:26:42;;;;;;;36.57;21.97;;;8.30;99.90;;;;;;7282060;19;20293;-79
2023/04/18 04:29:12;;;;;;;39.47;22.97;;;8.30;99.90;;;;;;7280361;19;20186;-78
2023/04/18 04:31:39;;;;;;;37.70;22.63;;;8.30;99.90;;;;;;7280378;19;20790;-79
2023/04/18 04:34:05;;;;;;;37.77;21.90;;;8.40;99.90;;;;;;7303128;19;20196;-79
2023/04/18 04:36:32;;;;;;;33.00;20.83;;;8.50;99.90;;;;;;7283567;19;20248;-79
2023/04/18 04:39:02;;;;;;;38.17;21.33;;;8.60;99.90;;;;;;7287379;19;20599;-79
2023/04/18 04:41:38;;;;;;;36.40;22.17;;;8.40;99.90;;;;;;7284879;19;20284;-78
2023/04/18 04:44:05;;;;;;;38.63;22.17;;;8.40;99.90;;;;;;7287042;19;20195;-78
2023/04/18 04:46:33;;;;;;;35.83;21.67;;;8.40;99.90;;;;;;7286999;19;20325;-78
2023/04/18 04:49:01;;;;;;;39.17;22.33;;;8.50;99.90;;;;;;7286924;19;20185;-78
2023/04/18 04:51:27;;;;;;;39.83;23.17;;;8.50;99.90;;;;;;7285090;19;20639;-78
2023/04/18 04:53:53;;;;;;;41.23;22.37;;;8.50;99.90;;;;;;7286703;19;20182;-78
2023/04/18 04:56:19;;;;;;;37.27;22.50;;;8.40;99.90;;;;;;7288061;19;20271;-81
2023/04/18 04:58:46;;;;;;;35.17;21.60;;;8.40;99.90;;;;;;7287242;19;20261;-79
2023/04/18 05:01:23;;;;;;;38.93;23.17;;;8.40;99.90;;;;;;7287486;19;20187;-80
2023/04/18 05:03:51;;;;;;;35.57;21.93;;;8.40;99.90;;;;;;7286222;19;20183;-79
2023/04/18 05:06:21;;;;;;;36.17;21.63;;;8.50;99.90;;;;;;7286348;19;20194;-79
2023/04/18 05:08:47;;;;;;;36.43;20.27;;;8.50;99.90;;;;;;7285516;19;20193;-80
2023/04/18 05:11:13;;;;;;;33.53;19.90;;;8.50;99.90;;;;;;7286394;19;20187;-79
2023/04/18 05:13:39;;;;;;;34.20;20.43;;;8.60;99.90;;;;;;7293637;19;20557;-79
2023/04/18 05:16:05;;;;;;;29.67;19.20;;;8.60;99.90;;;;;;7306593;19;20211;-79
2023/04/18 05:18:31;;;;;;;32.80;18.83;;;8.70;99.90;;;;;;7287565;19;20190;-79
2023/04/18 05:20:56;;;;;;;29.70;19.10;;;8.60;99.90;;;;;;7287995;19;20669;-79
2023/04/18 05:23:22;;;;;;;32.77;20.10;;;8.60;99.90;;;;;;7289829;19;20198;-80
2023/04/18 05:25:48;;;;;;;30.63;18.23;;;8.60;99.90;;;;;;7289360;19;20220;-79
2023/04/18 05:28:14;;;;;;;32.23;18.80;;;8.60;99.90;;;;;;7288351;19;20548;-79
2023/04/18 05:30:40;;;;;;;29.53;17.57;;;8.70;99.90;;;;;;7289740;19;20183;-80
2023/04/18 05:33:06;;;;;;;31.77;18.47;;;8.70;99.90;;;;;;7310468;19;20187;-81
2023/04/18 05:35:31;;;;;;;29.23;17.70;;;8.70;99.90;;;;;;7287667;19;20200;-80
2023/04/18 05:37:57;;;;;;;26.93;16.87;;;8.80;99.90;;;;;;7287735;19;21346;-80
2023/04/18 05:40:24;;;;;;;26.57;16.50;;;8.90;99.90;;;;;;7289853;19;20622;-79
2023/04/18 05:42:49;;;;;;;27.27;17.33;;;8.90;99.90;;;;;;7287661;19;20194;-78
2023/04/18 05:45:15;;;;;;;26.67;16.10;;;8.90;99.90;;;;;;7287677;19;20281;-78
2023/04/18 05:47:41;;;;;;;23.40;15.03;;;9.20;99.90;;;;;;7286364;19;20593;-78
2023/04/18 05:50:07;;;;;;;23.23;14.87;;;9.60;99.90;;;;;;7310002;19;20191;-79
2023/04/18 05:52:33;;;;;;;26.23;14.87;;;10.10;99.90;;;;;;7288766;19;20181;-79
2023/04/18 05:54:58;;;;;;;23.70;14.00;;;10.40;99.90;;;;;;7288688;19;20208;-78
2023/04/18 05:57:24;;;;;;;22.83;13.50;;;10.50;99.90;;;;;;7287164;19;20640;-79
2023/04/18 05:59:50;;;;;;;25.37;14.33;;;10.40;99.90;;;;;;7285087;19;20210;-79
2023/04/18 06:02:15;;;;;;;25.70;13.97;;;10.70;99.90;;;;;;7285809;19;20189;-80
2023/04/18 06:04:41;;;;;;;20.90;13.27;;;11.10;99.90;;;;;;7287254;19;20185;-79
2023/04/18 06:07:08;;;;;;;22.40;13.67;;;11.40;99.90;;;;;;7309668;19;20201;-79
2023/04/18 06:09:34;;;;;;;22.13;13.33;;;11.50;99.90;;;;;;7288079;19;20180;-79
2023/04/18 06:12:00;;;;;;;20.80;13.00;;;11.70;99.90;;;;;;7287643;19;20183;-79
2023/04/18 06:14:27;;;;;;;22.10;12.67;;;11.50;99.90;;;;;;7288320;19;20550;-79
2023/04/18 06:16:52;;;;;;;17.80;11.93;;;11.50;99.90;;;;;;7287226;19;20196;-79
2023/04/18 06:19:18;;;;;;;20.67;12.60;;;11.60;99.90;;;;;;7286134;19;20195;-79
2023/04/18 06:21:44;;;;;;;20.10;12.27;;;11.60;99.90;;;;;;7287761;19;20254;-79
2023/04/18 06:24:10;;;;;;;19.10;11.97;;;11.50;99.90;;;;;;7288533;19;20195;-78
2023/04/18 06:26:35;;;;;;;19.67;11.77;;;11.70;99.90;;;;;;7309897;19;20271;-78
2023/04/18 06:29:01;;;;;;;19.57;11.70;;;12.20;99.90;;;;;;7287585;19;20183;-79
2023/04/18 06:31:27;;;;;;;23.00;11.63;;;12.80;99.90;;;;;;7286597;19;20200;-78
2023/04/18 06:33:52;;;;;;;18.30;11.70;;;12.90;99.90;;;;;;7288218;19;20289;-78
2023/04/18 06:36:18;;;;;;;20.33;11.97;;;12.60;99.90;;;;;;7286707;19;20187;-78
2023/04/18 06:38:44;;;;;;;19.67;11.17;;;12.30;99.90;;;;;;7285707;19;20702;-78
2023/04/18 06:41:13;;;;;;;17.83;11.43;;;12.40;99.90;;;;;;7289522;19;20190;-78
2023/04/18 06:43:39;;;;;;;17.07;11.07;;;13.00;99.90;;;;;;7299128;19;20187;-78
2023/04/18 06:46:05;;;;;;;17.33;11.87;;;13.00;99.90;;;;;;7307659;19;20195;-78
2023/04/18 06:48:31;;;;;;;22.37;11.30;;;12.30;99.90;;;;;;7286739;19;20217;-78
2023/04/18 06:50:56;;;;;;;18.20;12.20;;;12.40;99.90;;;;;;7284422;19;20195;-78
2023/04/18 06:53:22;;;;;;;17.60;11.53;;;12.50;99.90;;;;;;7286272;19;20205;-78
2023/04/18 06:55:48;;;;;;;19.37;11.57;;;12.60;99.90;;;;;;7286452;19;20188;-78
2023/04/18 06:58:15;;;;;;;18.53;11.53;;;12.50;99.90;;;;;;7284330;19;20187;-78
2023/04/18 07:00:42;;;;;;;18.87;11.53;;;12.90;99.90;;;;;;7288363;19;20652;-78
2023/04/18 07:03:11;;;;;;;20.30;11.23;;;13.70;99.90;;;;;;7309615;19;20188;-78
2023/04/18 07:05:40;;;;;;;17.33;10.37;;;14.50;99.90;;;;;;7287872;19;20299;-79
2023/04/18 07:08:06;;;;;;;19.93;11.77;;;14.40;99.90;;;;;;7288233;19;20186;-79
2023/04/18 07:10:32;;;;;;;19.53;10.90;;;14.50;99.90;;;;;;7285143;19;20190;-79
2023/04/18 07:12:58;;;;;;;15.90;10.17;;;15.00;99.90;;;;;;7286553;19;21267;-79
2023/04/18 07:15:24;;;;;;;15.23;10.17;;;15.50;99.90;;;;;;7286252;19;20236;-79
2023/04/18 07:17:49;;;;;;;18.87;10.77;;;16.00;99.90;;;;;;7285326;19;20187;-79
2023/04/18 07:20:15;;;;;;;14.60;9.77;;;16.70;99.90;;;;;;7286575;19;20206;-79
2023/04/18 07:22:41;;;;;;;17.83;10.10;;;16.40;99.90;;;;;;7284390;19;20188;-79
2023/04/18 07:25:07;;;;;;;17.43;11.00;;;15.60;99.90;;;;;;7307017;19;20209;-79
2023/04/18 07:27:36;;;;;;;16.80;10.77;;;15.40;99.90;;;;;;7286875;19;20182;-79
2023/04/18 07:30:03;;;;;;;19.40;11.47;;;14.70;99.90;;;;;;7286468;19;20181;-79
2023/04/18 07:32:28;;;;;;;16.87;10.90;;;14.40;99.90;;;;;;7285048;19;20198;-79
2023/04/18 07:34:56;;;;;;;18.67;10.40;;;15.20;99.90;;;;;;7286554;19;20564;-79
2023/04/18 07:37:22;;;;;;;17.30;10.70;;;16.10;99.90;;;;;;7284665;19;21114;-79
2023/04/18 07:39:47;;;;;;;16.40;11.07;;;16.20;99.90;;;;;;7286517;19;20714;-79
2023/04/18 07:42:13;;;;;;;16.20;10.70;;;16.00;99.90;;;;;;7285204;19;20185;-79
2023/04/18 07:44:39;;;;;;;18.70;10.93;;;15.80;99.90;;;;;;7302161;19;20178;-79
2023/04/18 07:47:08;;;;;;;17.07;11.00;;;15.70;99.90;;;;;;7299662;19;20183;-79
2023/04/18 07:49:34;;;;;;;16.80;11.10;;;15.90;99.90;;;;;;7285519;19;20193;-79
2023/04/18 07:52:00;;;;;;;19.10;11.30;;;15.30;99.90;;;;;;7286489;19;20193;-79
2023/04/18 07:54:26;;;;;;;18.13;10.73;;;15.40;99.90;;;;;;7285328;19;20192;-79
2023/04/18 07:56:51;;;;;;;18.30;11.20;;;15.40;99.90;;;;;;7285471;19;20202;-79
2023/04/18 07:59:17;;;;;;;16.60;10.90;;;15.80;99.90;;;;;;7283598;19;20179;-78
2023/04/18 08:01:43;;;;;;;17.70;10.63;;;16.40;99.90;;;;;;7284952;19;20192;-78
2023/04/18 08:04:08;;;;;;;18.83;11.60;;;17.50;99.90;;;;;;7304855;19;20190;-79
2023/04/18 08:06:34;;;;;;;16.97;10.73;;;17.60;99.90;;;;;;7293491;19;20189;-79
2023/04/18 08:09:03;;;;;;;18.27;11.53;;;17.60;99.90;;;;;;7283999;19;20644;-80
2023/04/18 08:11:29;;;;;;;15.63;11.10;;;17.60;99.90;;;;;;7288743;19;20229;-79
2023/04/18 08:13:55;;;;;;;16.23;10.90;;;18.60;99.90;;;;;;7291521;19;20185;-79
2023/04/18 08:16:21;;;;;;;16.37;10.27;;;18.60;99.90;;;;;;7292314;19;20186;-79
2023/04/18 08:18:46;;;;;;;15.87;10.90;;;19.10;99.90;;;;;;7291516;19;20181;-79
2023/04/18 08:21:12;;;;;;;17.37;11.77;;;17.80;99.90;;;;;;7290056;19;20189;-78
2023/04/18 08:23:38;;;;;;;20.43;12.23;;;16.40;99.90;;;;;;7312981;19;20251;-79
2023/04/18 08:26:03;;;;;;;18.27;12.97;;;15.40;99.90;;;;;;7290999;19;20720;-79
2023/04/18 08:28:29;;;;;;;18.37;12.77;;;14.70;99.90;;;;;;7290222;19;20270;-79
2023/04/18 08:30:55;;;;;;;18.80;12.73;;;14.40;99.90;;;;;;7290215;19;20662;-79
2023/04/18 08:33:23;;;;;;;18.23;13.57;;;15.30;99.90;;;;;;7290251;19;20198;-79
2023/04/18 08:35:52;;;;;;;18.33;13.17;;;15.90;99.90;;;;;;7291755;19;20528;-79
2023/04/18 08:38:18;;;;;;;21.20;13.60;;;17.20;99.90;;;;;;7288987;19;20556;-79
2023/04/18 08:40:44;;;;;;;19.30;14.37;;;19.10;99.90;;;;;;7290926;19;20189;-79
2023/04/18 08:43:15;;;;;;;17.60;12.93;;;19.40;99.90;;;;;;7295922;19;20256;-79
2023/04/18 08:45:42;;;;;;;16.93;13.10;;;19.20;99.90;;;;;;7287275;19;20202;-79
2023/04/18 08:48:15;;;;;;;18.80;14.07;;;19.00;99.90;;;;;;7313050;19;20181;-79
2023/04/18 08:50:42;;;;;;;18.97;13.60;;;18.30;99.90;;;;;;7268778;19;20188;-79
2023/04/18 08:53:08;;;;;;;17.03;12.97;;;18.30;99.90;;;;;;7312384;19;20184;-79
2023/04/18 08:55:34;;;;;;;18.73;13.50;;;17.90;99.90;;;;;;7291724;19;20255;-80
2023/04/18 08:58:01;;;;;;;17.27;13.03;;;17.80;99.90;;;;;;7290480;19;20214;-79
2023/04/18 09:00:28;;;;;;;17.33;12.93;;;18.10;99.90;;;;;;7289708;19;20607;-79
2023/04/18 09:02:55;;;;;;;17.53;12.97;;;18.30;99.90;;;;;;7290656;19;20203;-79
2023/04/18 09:05:24;;;;;;;19.10;13.13;;;18.40;99.90;;;;;;7287967;19;20181;-79
2023/04/18 09:07:52;;;;;;;16.37;12.57;;;18.80;99.90;;;;;;7290835;19;20545;-79
2023/04/18 09:10:32;;;;;;;19.37;13.33;;;19.20;99.90;;;;;;7289507;19;20268;-79
2023/04/18 09:12:59;;;;;;;18.80;12.17;;;19.80;99.90;;;;;;7288718;19;20704;-79
2023/04/18 09:15:27;;;;;;;16.57;11.97;;;20.10;99.90;;;;;;7290306;19;20646;-79
2023/04/18 09:17:57;;;;;;;18.17;13.27;;;19.70;99.90;;;;;;7288860;19;20550;-80
2023/04/18 09:20:52;;;;;;;17.47;12.80;;;19.20;99.90;;;;;;7287974;19;20191;-79
2023/04/18 09:23:24;;;;;;;19.57;13.17;;;19.20;99.90;;;;;;7184188;19;2004689;-79
2023/04/18 09:25:52;;;;;;;17.87;12.63;;;18.80;99.90;;;;;;7288470;19;20189;-80
2023/04/18 09:28:22;;;;;;;16.73;11.93;;;19.50;99.90;;;;;;7289814;19;20616;-80
2023/04/18 09:30:50;;;;;;;18.30;12.37;;;20.90;99.90;;;;;;7287449;19;20178;-79
2023/04/18 09:33:16;;;;;;;17.17;12.07;;;21.30;99.90;;;;;;7287754;19;20188;-79
2023/04/18 09:35:42;;;;;;;17.17;12.23;;;21.90;99.90;;;;;;7289261;19;20204;-79
2023/04/18 09:38:08;;;;;;;17.03;11.50;;;21.70;99.90;;;;;;7310455;19;20254;-79
2023/04/18 09:40:34;;;;;;;15.60;11.13;;;22.20;99.90;;;;;;7288639;19;20194;-79
2023/04/18 09:43:00;;;;;;;16.60;11.87;;;22.20;99.90;;;;;;7288294;19;20182;-80
2023/04/18 09:45:26;;;;;;;15.73;11.40;;;21.60;99.90;;;;;;7289271;19;20184;-79
2023/04/18 09:47:53;;;;;;;18.03;11.80;;;20.60;99.90;;;;;;7288635;19;20195;-79
2023/04/18 09:50:19;;;;;;;15.83;12.00;;;20.10;99.90;;;;;;7287411;19;20201;-79
2023/04/18 09:52:46;;;;;;;17.27;11.83;;;19.90;99.90;;;;;;7288982;19;20185;-79
2023/04/18 09:55:15;;;;;;;17.60;11.77;;;20.20;99.90;;;;;;7288982;19;20677;-79
2023/04/18 09:57:46;;;;;;;16.30;11.90;;;20.10;99.90;;;;;;7289890;19;20185;-79
2023/04/18 10:00:23;;;;;;;15.67;11.17;;;20.10;99.90;;;;;;7288278;19;20184;-79
2023/04/18 10:02:57;;;;;;;16.67;12.00;;;20.30;99.90;;;;;;7288045;19;20179;-80
2023/04/18 10:05:33;;;;;;;18.47;12.20;;;20.30;99.90;;;;;;7287730;19;20190;-79
2023/04/18 10:07:59;;;;;;;14.77;11.60;;;19.50;99.90;;;;;;7288180;19;21064;-79
2023/04/18 10:10:25;;;;;;;17.20;11.83;;;19.50;99.90;;;;;;7286866;19;20204;-79
2023/04/18 10:12:56;;;;;;;16.30;10.93;;;19.60;99.90;;;;;;7287377;19;20187;-79
2023/04/18 10:15:24;;;;;;;16.33;11.90;;;20.80;99.90;;;;;;7288813;19;20672;-79
2023/04/18 10:17:55;;;;;;;18.83;13.10;;;21.60;99.90;;;;;;7286184;19;20199;-79
2023/04/18 10:20:25;;;;;;;18.00;12.50;;;19.60;99.90;;;;;;7286708;19;20183;-79
2023/04/18 10:22:53;;;;;;;23.57;12.97;;;19.40;99.90;;;;;;7285898;19;20672;-79
2023/04/18 10:25:37;;;;;;;16.97;11.67;;;20.40;99.90;;;;;;7287305;19;20181;-79
2023/04/18 10:28:04;;;;;;;18.47;12.20;;;20.30;99.90;;;;;;7286634;19;20258;-79
2023/04/18 10:30:39;;;;;;;19.80;12.20;;;20.10;99.90;;;;;;7287316;19;20296;-79
2023/04/18 10:33:37;;;;;;;18.20;12.77;;;19.20;99.90;;;;;;7287721;19;20240;-80
2023/04/18 10:36:08;;;;;;;17.93;12.30;;;18.60;99.90;;;;;;7185223;19;2005827;-79
2023/04/18 10:38:46;;;;;;;20.47;13.67;;;19.10;99.90;;;;;;7288381;19;20200;-79
2023/04/18 10:41:28;;;;;;;20.63;13.30;;;19.10;99.90;;;;;;7264424;19;20193;-79
2023/04/18 10:44:05;;;;;;;18.87;13.27;;;20.40;99.90;;;;;;7287154;19;20203;-81
2023/04/18 10:47:02;;;;;;;18.87;12.97;;;20.20;99.90;;;;;;7287455;19;20603;-79
2023/04/18 10:49:30;;;;;;;20.20;13.30;;;20.40;99.90;;;;;;7182054;19;2006446;-80
2023/04/18 10:52:00;;;;;;;18.03;13.20;;;20.50;99.90;;;;;;7286914;19;20709;-80
2023/04/18 10:54:37;;;;;;;19.93;12.67;;;20.10;99.90;;;;;;7286073;19;20177;-80
2023/04/18 10:57:14;;;;;;;18.73;13.07;;;19.80;99.90;;;;;;7319294;19;20781;-79
2023/04/18 10:59:49;;;;;;;20.53;13.43;;;19.90;99.90;;;;;;7335996;19;20186;-78
2023/04/18 11:02:27;;;;;;;19.13;13.57;;;20.20;99.90;;;;;;7320741;19;20649;-79
2023/04/18 11:04:56;;;;;;;20.87;13.47;;;20.10;99.90;;;;;;7319511;19;20673;-79
2023/04/18 11:07:35;;;;;;;21.10;13.37;;;19.10;99.90;;;;;;7319517;19;20260;-79
2023/04/18 11:10:01;;;;;;;20.80;13.10;;;17.70;99.90;;;;;;7318245;19;20177;-79
2023/04/18 11:12:31;;;;;;;21.73;13.30;;;17.10;99.90;;;;;;7318112;19;20183;-79
2023/04/18 11:14:58;;;;;;;19.73;13.37;;;16.70;99.90;;;;;;7319674;19;20550;-78
2023/04/18 11:17:25;;;;;;;20.63;13.27;;;16.50;99.90;;;;;;7318899;19;20270;-79
2023/04/18 11:20:14;;;;;;;19.33;12.33;;;16.10;99.90;;;;;;7317937;19;20218;-79
2023/04/18 11:22:53;;;;;;;21.37;12.83;;;15.90;99.90;;;;;;7314281;19;20557;-78
2023/04/18 11:25:27;;;;;;;21.20;12.47;;;15.80;99.90;;;;;;7316496;19;20181;-79
2023/04/18 11:27:56;;;;;;;21.43;12.17;;;15.50;99.90;;;;;;7318892;19;20248;-80
2023/04/18 11:30:21;;;;;;;22.07;12.93;;;15.40;99.90;;;;;;7318967;19;20181;-79
2023/04/18 11:32:47;;;;;;;21.77;12.83;;;15.40;99.90;;;;;;7317642;19;20661;-79
2023/04/18 11:35:14;;;;;;;19.47;11.63;;;16.50;99.90;;;;;;7318358;19;20202;-79
2023/04/18 11:37:42;;;;;;;18.90;11.57;;;17.40;99.90;;;;;;7328438;19;20184;-79
2023/04/18 11:40:08;;;;;;;16.60;11.13;;;17.40;99.90;;;;;;7340739;19;20189;-80
2023/04/18 11:42:36;;;;;;;19.70;12.23;;;17.70;99.90;;;;;;7317201;19;20208;-80
2023/04/18 11:45:02;;;;;;;19.23;11.97;;;17.60;99.90;;;;;;7317243;19;20223;-80
2023/04/18 11:47:30;;;;;;;20.27;12.37;;;17.40;99.90;;;;;;7316159;19;20189;-79
2023/04/18 11:50:06;;;;;;;18.00;11.80;;;17.10;99.90;;;;;;7317607;19;20218;-80
2023/04/18 11:52:34;;;;;;;18.83;12.53;;;16.70;99.90;;;;;;7318551;19;20199;-79
2023/04/18 11:55:22;;;;;;;18.77;12.87;;;16.10;99.90;;;;;;7317408;19;20207;-79
2023/04/18 11:57:53;;;;;;;16.10;11.43;;;15.60;99.90;;;;;;7214890;19;2004822;-79
2023/04/18 12:00:29;;;;;;;17.00;11.67;;;15.40;99.90;;;;;;7317967;19;20197;-79
2023/04/18 12:02:57;;;;;;;18.47;11.47;;;15.70;99.90;;;;;;7315478;19;20191;-79
2023/04/18 12:05:34;;;;;;;16.30;11.37;;;16.00;99.90;;;;;;7316803;19;20593;-79
2023/04/18 12:08:08;;;;;;;15.80;10.47;;;15.80;99.90;;;;;;7295618;19;20199;-79
2023/04/18 12:10:34;;;;;;;13.93;9.47;;;16.50;99.90;;;;;;7288480;19;20207;-79
2023/04/18 12:13:01;;;;;;;17.20;9.63;;;17.40;99.90;;;;;;7288589;19;20205;-79
2023/04/18 12:15:28;;;;;;;15.50;9.57;;;18.10;99.90;;;;;;7288488;19;20531;-79
2023/04/18 12:18:04;;;;;;;20.53;10.03;;;18.50;99.90;;;;;;7289472;19;20259;-80
2023/04/18 12:20:35;;;;;;;18.70;10.73;;;18.10;99.90;;;;;;7289563;19;20209;-80
2023/04/18 12:23:02;;;;;;;13.87;9.60;;;18.00;99.90;;;;;;7287936;19;20649;-80
2023/04/18 12:25:28;;;;;;;14.00;9.53;;;18.00;99.90;;;;;;7287700;19;20185;-79
2023/04/18 12:27:59;;;;;;;15.13;10.07;;;18.00;99.90;;;;;;7290369;19;20660;-80
2023/04/18 12:30:33;;;;;;;15.90;10.10;;;17.60;99.90;;;;;;7286719;19;20192;-79
2023/04/18 12:33:03;;;;;;;14.63;10.10;;;16.90;99.90;;;;;;7288428;19;20544;-80
2023/04/18 12:35:30;;;;;;;14.00;10.03;;;16.60;99.90;;;;;;7288128;19;20599;-80